sensor_id;sensor_type;location;lat;lon;timestamp;P1;durP1;ratioP1;P2;durP2;ratioP2
4812;SDS011;2420;51.202;8.698;2023-02-26T00:01:35;3.47;;;2.42;;
4812;SDS011;2420;51.202;8.698;2023-02-26T00:04:01;2.80;;;2.50;;
4812;SDS011;2420;51.202;8.698;2023-02-26T00:06:30;3.75;;;2.20;;
4812;SDS011;2420;51.202;8.698;2023-02-26T00:08:57;3.53;;;2.45;;
4812;SDS011;2420;51.202;8.698;2023-02-26T00:11:23;5.85;;;2.65;;
4812;SDS011;2420;51.202;8.698;2023-02-26T00:13:49;5.43;;;2.63;;
4812;SDS011;2420;51.202;8.698;2023-02-26T00:16:22;4.55;;;2.70;;
4812;SDS011;2420;51.202;8.698;2023-02-26T00:18:57;3.75;;;2.50;;
4812;SDS011;2420;51.202;8.698;2023-02-26T00:21:25;4.35;;;2.40;;
4812;SDS011;2420;51.202;8.698;2023-02-26T00:23:52;3.38;;;2.50;;
4812;SDS011;2420;51.202;8.698;2023-02-26T00:26:20;3.80;;;2.35;;
4812;SDS011;2420;51.202;8.698;2023-02-26T00:28:47;4.47;;;2.30;;
4812;SDS011;2420;51.202;8.698;2023-02-26T00:31:14;6.10;;;2.40;;
4812;SDS011;2420;51.202;8.698;2023-02-26T00:33:40;5.55;;;2.05;;
4812;SDS011;2420;51.202;8.698;2023-02-26T00:38:42;3.53;;;2.10;;
4812;SDS011;2420;51.202;8.698;2023-02-26T00:41:11;2.78;;;1.80;;
4812;SDS011;2420;51.202;8.698;2023-02-26T00:43:36;3.38;;;1.70;;
4812;SDS011;2420;51.202;8.698;2023-02-26T00:48:58;4.18;;;1.60;;
4812;SDS011;2420;51.202;8.698;2023-02-26T00:51:48;3.53;;;1.70;;
4812;SDS011;2420;51.202;8.698;2023-02-26T00:54:24;3.47;;;1.60;;
4812;SDS011;2420;51.202;8.698;2023-02-26T00:56:52;6.72;;;1.85;;
4812;SDS011;2420;51.202;8.698;2023-02-26T00:59:19;3.13;;;1.85;;
4812;SDS011;2420;51.202;8.698;2023-02-26T01:01:45;4.10;;;1.80;;
4812;SDS011;2420;51.202;8.698;2023-02-26T01:04:12;3.45;;;1.88;;
4812;SDS011;2420;51.202;8.698;2023-02-26T01:06:43;4.13;;;1.58;;
4812;SDS011;2420;51.202;8.698;2023-02-26T01:11:39;3.47;;;1.90;;
4812;SDS011;2420;51.202;8.698;2023-02-26T01:14:06;5.28;;;1.83;;
4812;SDS011;2420;51.202;8.698;2023-02-26T01:16:33;4.22;;;2.00;;
4812;SDS011;2420;51.202;8.698;2023-02-26T01:19:08;3.17;;;1.80;;
4812;SDS011;2420;51.202;8.698;2023-02-26T01:21:46;4.07;;;1.80;;
4812;SDS011;2420;51.202;8.698;2023-02-26T01:24:17;6.40;;;2.08;;
4812;SDS011;2420;51.202;8.698;2023-02-26T01:26:46;4.85;;;2.53;;
4812;SDS011;2420;51.202;8.698;2023-02-26T01:29:13;3.58;;;2.30;;
4812;SDS011;2420;51.202;8.698;2023-02-26T01:37:25;4.72;;;2.47;;
4812;SDS011;2420;51.202;8.698;2023-02-26T01:40:02;5.65;;;2.70;;
4812;SDS011;2420;51.202;8.698;2023-02-26T01:42:43;8.50;;;2.58;;
4812;SDS011;2420;51.202;8.698;2023-02-26T01:45:15;6.57;;;2.92;;
4812;SDS011;2420;51.202;8.698;2023-02-26T01:47:47;7.15;;;2.92;;
4812;SDS011;2420;51.202;8.698;2023-02-26T01:50:32;5.30;;;2.72;;
4812;SDS011;2420;51.202;8.698;2023-02-26T01:55:41;6.53;;;3.10;;
4812;SDS011;2420;51.202;8.698;2023-02-26T01:58:09;4.35;;;2.50;;
4812;SDS011;2420;51.202;8.698;2023-02-26T02:00:36;4.85;;;2.85;;
4812;SDS011;2420;51.202;8.698;2023-02-26T02:03:01;3.67;;;2.75;;
4812;SDS011;2420;51.202;8.698;2023-02-26T02:05:32;5.43;;;2.75;;
4812;SDS011;2420;51.202;8.698;2023-02-26T02:08:03;6.93;;;3.20;;
4812;SDS011;2420;51.202;8.698;2023-02-26T02:10:29;7.30;;;3.00;;
4812;SDS011;2420;51.202;8.698;2023-02-26T02:21:14;3.53;;;2.50;;
4812;SDS011;2420;51.202;8.698;2023-02-26T02:24:02;7.35;;;2.83;;
4812;SDS011;2420;51.202;8.698;2023-02-26T02:29:15;3.80;;;2.58;;
4812;SDS011;2420;51.202;8.698;2023-02-26T02:31:59;6.07;;;2.65;;
4812;SDS011;2420;51.202;8.698;2023-02-26T02:40:01;5.97;;;3.03;;
4812;SDS011;2420;51.202;8.698;2023-02-26T02:42:52;4.47;;;3.00;;
4812;SDS011;2420;51.202;8.698;2023-02-26T02:45:25;6.70;;;3.17;;
4812;SDS011;2420;51.202;8.698;2023-02-26T02:48:01;4.90;;;2.67;;
4812;SDS011;2420;51.202;8.698;2023-02-26T02:50:35;4.40;;;2.78;;
4812;SDS011;2420;51.202;8.698;2023-02-26T02:53:08;5.95;;;2.97;;
4812;SDS011;2420;51.202;8.698;2023-02-26T02:55:49;5.53;;;2.67;;
4812;SDS011;2420;51.202;8.698;2023-02-26T02:58:21;5.97;;;3.20;;
4812;SDS011;2420;51.202;8.698;2023-02-26T03:00:55;6.13;;;3.00;;
4812;SDS011;2420;51.202;8.698;2023-02-26T03:06:14;8.85;;;3.60;;
4812;SDS011;2420;51.202;8.698;2023-02-26T03:08:41;7.05;;;3.17;;
4812;SDS011;2420;51.202;8.698;2023-02-26T03:11:09;5.50;;;3.40;;
4812;SDS011;2420;51.202;8.698;2023-02-26T03:13:35;5.30;;;3.65;;
4812;SDS011;2420;51.202;8.698;2023-02-26T03:22:10;4.75;;;3.38;;
4812;SDS011;2420;51.202;8.698;2023-02-26T03:24:45;8.32;;;3.67;;
4812;SDS011;2420;51.202;8.698;2023-02-26T03:27:26;6.95;;;3.60;;
4812;SDS011;2420;51.202;8.698;2023-02-26T03:29:54;6.03;;;3.80;;
4812;SDS011;2420;51.202;8.698;2023-02-26T03:32:31;7.28;;;3.90;;
4812;SDS011;2420;51.202;8.698;2023-02-26T03:35:01;9.30;;;3.85;;
4812;SDS011;2420;51.202;8.698;2023-02-26T03:37:40;6.40;;;4.03;;
4812;SDS011;2420;51.202;8.698;2023-02-26T03:40:15;6.35;;;3.60;;
4812;SDS011;2420;51.202;8.698;2023-02-26T03:42:47;7.55;;;3.72;;
4812;SDS011;2420;51.202;8.698;2023-02-26T03:45:24;6.65;;;4.05;;
4812;SDS011;2420;51.202;8.698;2023-02-26T03:47:54;6.90;;;3.67;;
4812;SDS011;2420;51.202;8.698;2023-02-26T03:53:03;6.90;;;3.78;;
4812;SDS011;2420;51.202;8.698;2023-02-26T03:55:44;5.70;;;3.67;;
4812;SDS011;2420;51.202;8.698;2023-02-26T03:58:21;6.32;;;3.47;;
4812;SDS011;2420;51.202;8.698;2023-02-26T04:00:49;7.25;;;3.55;;
4812;SDS011;2420;51.202;8.698;2023-02-26T04:05:49;6.53;;;3.63;;
4812;SDS011;2420;51.202;8.698;2023-02-26T04:08:16;4.88;;;3.33;;
4812;SDS011;2420;51.202;8.698;2023-02-26T04:10:44;8.05;;;3.83;;
4812;SDS011;2420;51.202;8.698;2023-02-26T04:13:11;8.38;;;3.85;;
4812;SDS011;2420;51.202;8.698;2023-02-26T04:15:36;7.60;;;3.67;;
4812;SDS011;2420;51.202;8.698;2023-02-26T04:18:02;8.88;;;3.83;;
4812;SDS011;2420;51.202;8.698;2023-02-26T04:20:28;5.95;;;3.70;;
4812;SDS011;2420;51.202;8.698;2023-02-26T04:22:53;7.35;;;3.38;;
4812;SDS011;2420;51.202;8.698;2023-02-26T04:25:22;6.53;;;3.70;;
4812;SDS011;2420;51.202;8.698;2023-02-26T04:27:47;6.95;;;3.67;;
4812;SDS011;2420;51.202;8.698;2023-02-26T04:30:13;5.95;;;3.80;;
4812;SDS011;2420;51.202;8.698;2023-02-26T04:32:38;7.47;;;3.70;;
4812;SDS011;2420;51.202;8.698;2023-02-26T04:35:04;7.65;;;3.65;;
4812;SDS011;2420;51.202;8.698;2023-02-26T04:37:29;8.93;;;3.55;;
4812;SDS011;2420;51.202;8.698;2023-02-26T04:39:55;8.52;;;3.33;;
4812;SDS011;2420;51.202;8.698;2023-02-26T04:42:21;6.43;;;3.38;;
4812;SDS011;2420;51.202;8.698;2023-02-26T04:44:46;4.85;;;3.30;;
4812;SDS011;2420;51.202;8.698;2023-02-26T04:47:12;3.97;;;3.10;;
4812;SDS011;2420;51.202;8.698;2023-02-26T04:49:37;8.20;;;3.33;;
4812;SDS011;2420;51.202;8.698;2023-02-26T04:52:03;7.10;;;3.95;;
4812;SDS011;2420;51.202;8.698;2023-02-26T04:54:28;5.30;;;3.67;;
4812;SDS011;2420;51.202;8.698;2023-02-26T04:56:54;5.45;;;3.42;;
4812;SDS011;2420;51.202;8.698;2023-02-26T04:59:20;5.00;;;2.92;;
4812;SDS011;2420;51.202;8.698;2023-02-26T05:01:45;7.82;;;3.70;;
4812;SDS011;2420;51.202;8.698;2023-02-26T05:04:11;6.13;;;3.50;;
4812;SDS011;2420;51.202;8.698;2023-02-26T05:06:36;7.35;;;3.70;;
4812;SDS011;2420;51.202;8.698;2023-02-26T05:09:02;8.27;;;3.47;;
4812;SDS011;2420;51.202;8.698;2023-02-26T05:11:28;6.65;;;3.42;;
4812;SDS011;2420;51.202;8.698;2023-02-26T05:13:53;8.43;;;3.92;;
4812;SDS011;2420;51.202;8.698;2023-02-26T05:16:19;6.50;;;3.55;;
4812;SDS011;2420;51.202;8.698;2023-02-26T05:18:45;5.53;;;3.38;;
4812;SDS011;2420;51.202;8.698;2023-02-26T05:21:10;5.53;;;3.65;;
4812;SDS011;2420;51.202;8.698;2023-02-26T05:23:36;4.53;;;3.05;;
4812;SDS011;2420;51.202;8.698;2023-02-26T05:26:02;5.63;;;3.45;;
4812;SDS011;2420;51.202;8.698;2023-02-26T05:28:27;6.20;;;3.33;;
4812;SDS011;2420;51.202;8.698;2023-02-26T05:30:54;5.18;;;3.70;;
4812;SDS011;2420;51.202;8.698;2023-02-26T05:33:21;6.57;;;3.30;;
4812;SDS011;2420;51.202;8.698;2023-02-26T05:35:47;5.53;;;3.30;;
4812;SDS011;2420;51.202;8.698;2023-02-26T05:38:13;6.82;;;3.30;;
4812;SDS011;2420;51.202;8.698;2023-02-26T05:40:38;4.45;;;3.15;;
4812;SDS011;2420;51.202;8.698;2023-02-26T05:43:04;6.47;;;3.13;;
4812;SDS011;2420;51.202;8.698;2023-02-26T05:45:29;5.45;;;3.28;;
4812;SDS011;2420;51.202;8.698;2023-02-26T05:47:55;5.93;;;3.05;;
4812;SDS011;2420;51.202;8.698;2023-02-26T05:50:20;6.57;;;3.53;;
4812;SDS011;2420;51.202;8.698;2023-02-26T05:52:46;5.03;;;2.95;;
4812;SDS011;2420;51.202;8.698;2023-02-26T05:55:12;4.55;;;2.90;;
4812;SDS011;2420;51.202;8.698;2023-02-26T05:57:37;5.82;;;3.33;;
4812;SDS011;2420;51.202;8.698;2023-02-26T06:00:04;5.28;;;3.10;;
4812;SDS011;2420;51.202;8.698;2023-02-26T06:02:30;6.43;;;3.28;;
4812;SDS011;2420;51.202;8.698;2023-02-26T06:04:56;8.00;;;2.92;;
4812;SDS011;2420;51.202;8.698;2023-02-26T06:07:21;6.90;;;3.20;;
4812;SDS011;2420;51.202;8.698;2023-02-26T06:09:48;4.38;;;3.00;;
4812;SDS011;2420;51.202;8.698;2023-02-26T06:12:14;4.97;;;2.80;;
4812;SDS011;2420;51.202;8.698;2023-02-26T06:14:39;8.68;;;3.13;;
4812;SDS011;2420;51.202;8.698;2023-02-26T06:17:05;4.72;;;2.92;;
4812;SDS011;2420;51.202;8.698;2023-02-26T06:19:31;5.30;;;2.78;;
4812;SDS011;2420;51.202;8.698;2023-02-26T06:21:57;5.47;;;2.92;;
4812;SDS011;2420;51.202;8.698;2023-02-26T06:24:23;5.55;;;2.80;;
4812;SDS011;2420;51.202;8.698;2023-02-26T06:26:49;4.60;;;2.50;;
4812;SDS011;2420;51.202;8.698;2023-02-26T06:29:14;6.90;;;3.03;;
4812;SDS011;2420;51.202;8.698;2023-02-26T06:31:42;4.35;;;2.85;;
4812;SDS011;2420;51.202;8.698;2023-02-26T06:34:08;5.97;;;2.80;;
4812;SDS011;2420;51.202;8.698;2023-02-26T06:36:34;4.57;;;3.20;;
4812;SDS011;2420;51.202;8.698;2023-02-26T06:38:59;6.07;;;2.92;;
4812;SDS011;2420;51.202;8.698;2023-02-26T06:41:25;7.22;;;2.90;;
4812;SDS011;2420;51.202;8.698;2023-02-26T06:43:50;6.28;;;3.22;;
4812;SDS011;2420;51.202;8.698;2023-02-26T06:46:16;4.72;;;3.20;;
4812;SDS011;2420;51.202;8.698;2023-02-26T06:48:41;5.07;;;3.00;;
4812;SDS011;2420;51.202;8.698;2023-02-26T06:51:07;5.32;;;2.95;;
4812;SDS011;2420;51.202;8.698;2023-02-26T06:53:33;6.18;;;2.78;;
4812;SDS011;2420;51.202;8.698;2023-02-26T06:56:02;4.68;;;2.80;;
4812;SDS011;2420;51.202;8.698;2023-02-26T06:58:28;6.53;;;3.05;;
4812;SDS011;2420;51.202;8.698;2023-02-26T07:00:53;6.38;;;3.20;;
4812;SDS011;2420;51.202;8.698;2023-02-26T07:03:22;5.07;;;2.90;;
4812;SDS011;2420;51.202;8.698;2023-02-26T07:05:47;5.43;;;3.38;;
4812;SDS011;2420;51.202;8.698;2023-02-26T07:08:13;4.72;;;3.10;;
4812;SDS011;2420;51.202;8.698;2023-02-26T07:10:39;7.25;;;4.28;;
4812;SDS011;2420;51.202;8.698;2023-02-26T07:13:05;5.28;;;3.30;;
4812;SDS011;2420;51.202;8.698;2023-02-26T07:15:31;5.40;;;2.95;;
4812;SDS011;2420;51.202;8.698;2023-02-26T07:17:57;5.68;;;2.90;;
4812;SDS011;2420;51.202;8.698;2023-02-26T07:20:24;3.53;;;2.33;;
4812;SDS011;2420;51.202;8.698;2023-02-26T07:22:50;5.45;;;2.60;;
4812;SDS011;2420;51.202;8.698;2023-02-26T07:25:16;4.82;;;2.65;;
4812;SDS011;2420;51.202;8.698;2023-02-26T07:27:41;5.25;;;3.25;;
4812;SDS011;2420;51.202;8.698;2023-02-26T07:30:07;5.38;;;2.72;;
4812;SDS011;2420;51.202;8.698;2023-02-26T07:32:33;5.22;;;2.92;;
4812;SDS011;2420;51.202;8.698;2023-02-26T07:34:59;6.45;;;2.83;;
4812;SDS011;2420;51.202;8.698;2023-02-26T07:37:25;5.72;;;3.00;;
4812;SDS011;2420;51.202;8.698;2023-02-26T07:39:50;5.50;;;3.00;;
4812;SDS011;2420;51.202;8.698;2023-02-26T07:42:16;6.55;;;3.22;;
4812;SDS011;2420;51.202;8.698;2023-02-26T07:44:42;3.75;;;2.78;;
4812;SDS011;2420;51.202;8.698;2023-02-26T07:47:08;6.32;;;3.20;;
4812;SDS011;2420;51.202;8.698;2023-02-26T07:49:34;4.28;;;2.97;;
4812;SDS011;2420;51.202;8.698;2023-02-26T07:52:00;8.60;;;3.55;;
4812;SDS011;2420;51.202;8.698;2023-02-26T07:54:26;5.35;;;3.20;;
4812;SDS011;2420;51.202;8.698;2023-02-26T07:56:55;7.20;;;3.28;;
4812;SDS011;2420;51.202;8.698;2023-02-26T07:59:20;5.55;;;3.15;;
4812;SDS011;2420;51.202;8.698;2023-02-26T08:01:46;6.00;;;3.45;;
4812;SDS011;2420;51.202;8.698;2023-02-26T08:04:12;5.90;;;3.28;;
4812;SDS011;2420;51.202;8.698;2023-02-26T08:06:38;3.45;;;2.65;;
4812;SDS011;2420;51.202;8.698;2023-02-26T08:09:03;5.25;;;3.15;;
4812;SDS011;2420;51.202;8.698;2023-02-26T08:11:29;5.75;;;3.30;;
4812;SDS011;2420;51.202;8.698;2023-02-26T08:13:56;4.70;;;3.08;;
4812;SDS011;2420;51.202;8.698;2023-02-26T08:16:23;5.72;;;3.63;;
4812;SDS011;2420;51.202;8.698;2023-02-26T08:18:48;7.38;;;2.88;;
4812;SDS011;2420;51.202;8.698;2023-02-26T08:21:14;6.03;;;3.03;;
4812;SDS011;2420;51.202;8.698;2023-02-26T08:23:40;7.30;;;3.28;;
4812;SDS011;2420;51.202;8.698;2023-02-26T08:26:06;4.72;;;2.85;;
4812;SDS011;2420;51.202;8.698;2023-02-26T08:28:33;5.95;;;3.28;;
4812;SDS011;2420;51.202;8.698;2023-02-26T08:30:59;3.75;;;3.03;;
4812;SDS011;2420;51.202;8.698;2023-02-26T08:33:25;6.03;;;3.15;;
4812;SDS011;2420;51.202;8.698;2023-02-26T08:35:51;4.78;;;2.95;;
4812;SDS011;2420;51.202;8.698;2023-02-26T08:38:18;4.63;;;3.03;;
4812;SDS011;2420;51.202;8.698;2023-02-26T08:40:44;4.47;;;2.85;;
4812;SDS011;2420;51.202;8.698;2023-02-26T08:43:12;3.28;;;2.42;;
4812;SDS011;2420;51.202;8.698;2023-02-26T08:45:38;4.18;;;2.83;;
4812;SDS011;2420;51.202;8.698;2023-02-26T08:48:03;3.28;;;2.58;;
4812;SDS011;2420;51.202;8.698;2023-02-26T08:50:29;3.05;;;2.33;;
4812;SDS011;2420;51.202;8.698;2023-02-26T08:52:54;4.45;;;2.65;;
4812;SDS011;2420;51.202;8.698;2023-02-26T08:55:20;4.03;;;2.50;;
4812;SDS011;2420;51.202;8.698;2023-02-26T08:57:46;3.97;;;2.33;;
4812;SDS011;2420;51.202;8.698;2023-02-26T09:00:12;3.55;;;2.40;;
4812;SDS011;2420;51.202;8.698;2023-02-26T09:02:40;4.07;;;2.50;;
4812;SDS011;2420;51.202;8.698;2023-02-26T09:05:06;5.85;;;2.40;;
4812;SDS011;2420;51.202;8.698;2023-02-26T09:07:32;3.05;;;2.30;;
4812;SDS011;2420;51.202;8.698;2023-02-26T09:09:58;3.00;;;2.30;;
4812;SDS011;2420;51.202;8.698;2023-02-26T09:12:24;3.35;;;2.45;;
4812;SDS011;2420;51.202;8.698;2023-02-26T09:14:49;3.70;;;2.15;;
4812;SDS011;2420;51.202;8.698;2023-02-26T09:17:15;5.68;;;2.63;;
4812;SDS011;2420;51.202;8.698;2023-02-26T09:19:40;4.57;;;2.28;;
4812;SDS011;2420;51.202;8.698;2023-02-26T09:22:06;3.30;;;2.38;;
4812;SDS011;2420;51.202;8.698;2023-02-26T09:24:31;4.78;;;2.22;;
4812;SDS011;2420;51.202;8.698;2023-02-26T09:26:57;4.82;;;2.22;;
4812;SDS011;2420;51.202;8.698;2023-02-26T09:29:24;3.75;;;2.13;;
4812;SDS011;2420;51.202;8.698;2023-02-26T09:31:50;2.88;;;1.90;;
4812;SDS011;2420;51.202;8.698;2023-02-26T09:34:15;4.43;;;2.40;;
4812;SDS011;2420;51.202;8.698;2023-02-26T09:36:41;3.33;;;2.00;;
4812;SDS011;2420;51.202;8.698;2023-02-26T09:39:07;3.95;;;1.95;;
4812;SDS011;2420;51.202;8.698;2023-02-26T09:41:37;3.10;;;1.90;;
4812;SDS011;2420;51.202;8.698;2023-02-26T09:44:08;4.60;;;2.00;;
4812;SDS011;2420;51.202;8.698;2023-02-26T09:49:21;3.60;;;1.88;;
4812;SDS011;2420;51.202;8.698;2023-02-26T09:52:00;2.60;;;1.80;;
4812;SDS011;2420;51.202;8.698;2023-02-26T09:54:40;3.05;;;1.83;;
4812;SDS011;2420;51.202;8.698;2023-02-26T09:57:13;2.83;;;1.70;;
4812;SDS011;2420;51.202;8.698;2023-02-26T09:59:45;2.10;;;1.80;;
4812;SDS011;2420;51.202;8.698;2023-02-26T10:02:14;2.97;;;1.55;;
4812;SDS011;2420;51.202;8.698;2023-02-26T10:04:50;1.98;;;1.40;;
4812;SDS011;2420;51.202;8.698;2023-02-26T10:12:44;3.25;;;1.30;;
4812;SDS011;2420;51.202;8.698;2023-02-26T10:20:26;2.60;;;1.30;;
4812;SDS011;2420;51.202;8.698;2023-02-26T10:23:02;5.05;;;2.00;;
4812;SDS011;2420;51.202;8.698;2023-02-26T10:25:40;2.72;;;1.88;;
4812;SDS011;2420;51.202;8.698;2023-02-26T10:30:35;4.22;;;2.30;;
4812;SDS011;2420;51.202;8.698;2023-02-26T10:33:05;3.25;;;1.98;;
4812;SDS011;2420;51.202;8.698;2023-02-26T10:35:46;4.32;;;1.67;;
4812;SDS011;2420;51.202;8.698;2023-02-26T10:38:19;2.47;;;1.48;;
4812;SDS011;2420;51.202;8.698;2023-02-26T10:40:58;3.45;;;1.88;;
4812;SDS011;2420;51.202;8.698;2023-02-26T10:43:29;7.45;;;2.88;;
4812;SDS011;2420;51.202;8.698;2023-02-26T10:51:42;2.58;;;1.60;;
4812;SDS011;2420;51.202;8.698;2023-02-26T10:56:43;3.58;;;1.70;;
4812;SDS011;2420;51.202;8.698;2023-02-26T10:59:08;2.00;;;1.42;;
4812;SDS011;2420;51.202;8.698;2023-02-26T11:01:34;6.57;;;1.70;;
4812;SDS011;2420;51.202;8.698;2023-02-26T11:04:01;4.57;;;1.90;;
4812;SDS011;2420;51.202;8.698;2023-02-26T11:06:32;1.70;;;1.40;;
4812;SDS011;2420;51.202;8.698;2023-02-26T11:09:01;6.10;;;2.67;;
4812;SDS011;2420;51.202;8.698;2023-02-26T11:11:40;6.53;;;2.95;;
4812;SDS011;2420;51.202;8.698;2023-02-26T11:14:11;3.30;;;1.60;;
4812;SDS011;2420;51.202;8.698;2023-02-26T11:16:56;2.80;;;1.98;;
4812;SDS011;2420;51.202;8.698;2023-02-26T11:19:28;2.33;;;1.60;;
4812;SDS011;2420;51.202;8.698;2023-02-26T11:21:57;3.47;;;1.75;;
4812;SDS011;2420;51.202;8.698;2023-02-26T11:24:29;2.00;;;1.60;;
4812;SDS011;2420;51.202;8.698;2023-02-26T11:27:01;3.03;;;1.40;;
4812;SDS011;2420;51.202;8.698;2023-02-26T11:29:32;3.10;;;1.20;;
4812;SDS011;2420;51.202;8.698;2023-02-26T11:32:02;3.75;;;1.50;;
4812;SDS011;2420;51.202;8.698;2023-02-26T11:34:29;2.85;;;1.48;;
4812;SDS011;2420;51.202;8.698;2023-02-26T11:36:56;3.85;;;1.70;;
4812;SDS011;2420;51.202;8.698;2023-02-26T11:39:24;3.38;;;1.80;;
4812;SDS011;2420;51.202;8.698;2023-02-26T11:41:55;3.45;;;1.40;;
4812;SDS011;2420;51.202;8.698;2023-02-26T11:44:33;2.65;;;1.80;;
4812;SDS011;2420;51.202;8.698;2023-02-26T11:47:01;2.22;;;1.55;;
4812;SDS011;2420;51.202;8.698;2023-02-26T11:49:31;2.33;;;1.40;;
4812;SDS011;2420;51.202;8.698;2023-02-26T11:52:05;4.15;;;1.80;;
4812;SDS011;2420;51.202;8.698;2023-02-26T11:54:37;3.42;;;1.48;;
4812;SDS011;2420;51.202;8.698;2023-02-26T11:57:04;3.75;;;1.38;;
4812;SDS011;2420;51.202;8.698;2023-02-26T11:59:35;3.53;;;1.50;;
4812;SDS011;2420;51.202;8.698;2023-02-26T12:02:11;2.38;;;1.40;;
4812;SDS011;2420;51.202;8.698;2023-02-26T12:04:39;2.42;;;1.30;;
4812;SDS011;2420;51.202;8.698;2023-02-26T12:07:10;1.20;;;1.10;;
4812;SDS011;2420;51.202;8.698;2023-02-26T12:09:37;2.95;;;1.88;;
4812;SDS011;2420;51.202;8.698;2023-02-26T12:20:46;2.30;;;1.27;;
4812;SDS011;2420;51.202;8.698;2023-02-26T12:28:41;2.13;;;1.40;;
4812;SDS011;2420;51.202;8.698;2023-02-26T12:31:12;2.50;;;1.23;;
4812;SDS011;2420;51.202;8.698;2023-02-26T12:57:06;2.10;;;1.50;;
4812;SDS011;2420;51.202;8.698;2023-02-26T13:08:07;3.83;;;1.73;;
4812;SDS011;2420;51.202;8.698;2023-02-26T13:13:45;1.75;;;1.20;;
4812;SDS011;2420;51.202;8.698;2023-02-26T13:21:30;2.63;;;1.30;;
4812;SDS011;2420;51.202;8.698;2023-02-26T13:26:54;3.25;;;1.73;;
4812;SDS011;2420;51.202;8.698;2023-02-26T13:29:27;2.38;;;1.40;;
4812;SDS011;2420;51.202;8.698;2023-02-26T13:32:00;1.90;;;1.50;;
4812;SDS011;2420;51.202;8.698;2023-02-26T13:37:28;1.90;;;1.40;;
4812;SDS011;2420;51.202;8.698;2023-02-26T13:45:37;2.40;;;1.73;;
4812;SDS011;2420;51.202;8.698;2023-02-26T13:51:11;4.88;;;2.65;;
4812;SDS011;2420;51.202;8.698;2023-02-26T13:53:50;2.50;;;1.50;;
4812;SDS011;2420;51.202;8.698;2023-02-26T13:58:51;2.55;;;1.30;;
4812;SDS011;2420;51.202;8.698;2023-02-26T14:01:25;3.22;;;1.50;;
4812;SDS011;2420;51.202;8.698;2023-02-26T14:04:06;2.40;;;1.50;;
4812;SDS011;2420;51.202;8.698;2023-02-26T14:09:03;3.50;;;2.25;;
4812;SDS011;2420;51.202;8.698;2023-02-26T14:11:55;2.63;;;1.88;;
4812;SDS011;2420;51.202;8.698;2023-02-26T14:27:41;4.25;;;1.60;;
4812;SDS011;2420;51.202;8.698;2023-02-26T14:32:52;3.15;;;1.60;;
4812;SDS011;2420;51.202;8.698;2023-02-26T14:35:31;1.58;;;1.30;;
4812;SDS011;2420;51.202;8.698;2023-02-26T14:40:53;2.15;;;1.63;;
4812;SDS011;2420;51.202;8.698;2023-02-26T14:43:30;4.13;;;2.08;;
4812;SDS011;2420;51.202;8.698;2023-02-26T14:46:04;4.45;;;1.80;;
4812;SDS011;2420;51.202;8.698;2023-02-26T14:48:32;3.45;;;1.90;;
4812;SDS011;2420;51.202;8.698;2023-02-26T14:51:04;5.03;;;2.10;;
4812;SDS011;2420;51.202;8.698;2023-02-26T14:56:10;5.03;;;3.00;;
4812;SDS011;2420;51.202;8.698;2023-02-26T15:02:18;4.28;;;2.58;;
4812;SDS011;2420;51.202;8.698;2023-02-26T15:05:03;3.88;;;2.28;;
4812;SDS011;2420;51.202;8.698;2023-02-26T15:08:11;8.27;;;3.13;;
4812;SDS011;2420;51.202;8.698;2023-02-26T15:10:47;8.25;;;2.22;;
4812;SDS011;2420;51.202;8.698;2023-02-26T15:24:34;8.20;;;3.25;;
4812;SDS011;2420;51.202;8.698;2023-02-26T15:27:01;4.50;;;2.75;;
4812;SDS011;2420;51.202;8.698;2023-02-26T15:29:31;3.83;;;2.05;;
4812;SDS011;2420;51.202;8.698;2023-02-26T15:32:04;5.85;;;2.10;;
4812;SDS011;2420;51.202;8.698;2023-02-26T15:37:28;1.88;;;1.50;;
4812;SDS011;2420;51.202;8.698;2023-02-26T15:39:59;2.45;;;1.42;;
4812;SDS011;2420;51.202;8.698;2023-02-26T15:42:29;2.58;;;1.55;;
4812;SDS011;2420;51.202;8.698;2023-02-26T15:44:58;4.05;;;1.80;;
4812;SDS011;2420;51.202;8.698;2023-02-26T15:47:26;3.08;;;1.42;;
4812;SDS011;2420;51.202;8.698;2023-02-26T15:49:53;3.55;;;1.83;;
4812;SDS011;2420;51.202;8.698;2023-02-26T15:52:21;4.18;;;2.22;;
4812;SDS011;2420;51.202;8.698;2023-02-26T15:54:53;3.58;;;1.48;;
4812;SDS011;2420;51.202;8.698;2023-02-26T15:57:22;3.63;;;1.40;;
4812;SDS011;2420;51.202;8.698;2023-02-26T15:59:50;3.30;;;1.65;;
4812;SDS011;2420;51.202;8.698;2023-02-26T16:02:23;1.63;;;1.30;;
4812;SDS011;2420;51.202;8.698;2023-02-26T16:04:51;2.53;;;1.10;;
4812;SDS011;2420;51.202;8.698;2023-02-26T16:07:17;1.98;;;1.40;;
4812;SDS011;2420;51.202;8.698;2023-02-26T16:09:44;2.17;;;1.50;;
4812;SDS011;2420;51.202;8.698;2023-02-26T16:12:13;2.38;;;1.33;;
4812;SDS011;2420;51.202;8.698;2023-02-26T16:14:43;2.45;;;1.58;;
4812;SDS011;2420;51.202;8.698;2023-02-26T16:17:31;1.50;;;1.10;;
4812;SDS011;2420;51.202;8.698;2023-02-26T16:20:01;3.00;;;1.23;;
4812;SDS011;2420;51.202;8.698;2023-02-26T16:22:29;1.77;;;1.20;;
4812;SDS011;2420;51.202;8.698;2023-02-26T16:24:59;1.98;;;1.10;;
4812;SDS011;2420;51.202;8.698;2023-02-26T16:27:38;2.17;;;1.40;;
4812;SDS011;2420;51.202;8.698;2023-02-26T16:30:07;1.73;;;1.42;;
4812;SDS011;2420;51.202;8.698;2023-02-26T16:32:39;3.75;;;1.20;;
4812;SDS011;2420;51.202;8.698;2023-02-26T16:35:09;1.52;;;1.10;;
4812;SDS011;2420;51.202;8.698;2023-02-26T16:37:42;2.63;;;1.92;;
4812;SDS011;2420;51.202;8.698;2023-02-26T16:48:01;2.08;;;1.00;;
4812;SDS011;2420;51.202;8.698;2023-02-26T16:50:54;2.20;;;1.10;;
4812;SDS011;2420;51.202;8.698;2023-02-26T16:53:43;1.63;;;1.10;;
4812;SDS011;2420;51.202;8.698;2023-02-26T16:56:14;1.48;;;1.00;;
4812;SDS011;2420;51.202;8.698;2023-02-26T16:58:46;3.28;;;1.90;;
4812;SDS011;2420;51.202;8.698;2023-02-26T17:01:17;4.03;;;1.77;;
4812;SDS011;2420;51.202;8.698;2023-02-26T17:03:45;2.63;;;1.42;;
4812;SDS011;2420;51.202;8.698;2023-02-26T17:06:19;3.45;;;1.40;;
4812;SDS011;2420;51.202;8.698;2023-02-26T17:08:51;6.60;;;2.67;;
4812;SDS011;2420;51.202;8.698;2023-02-26T17:11:30;1.95;;;1.23;;
4812;SDS011;2420;51.202;8.698;2023-02-26T17:14:07;3.13;;;1.50;;
4812;SDS011;2420;51.202;8.698;2023-02-26T17:16:34;3.28;;;1.52;;
4812;SDS011;2420;51.202;8.698;2023-02-26T17:19:00;1.85;;;1.25;;
4812;SDS011;2420;51.202;8.698;2023-02-26T17:21:26;1.33;;;1.08;;
4812;SDS011;2420;51.202;8.698;2023-02-26T17:23:53;1.95;;;1.50;;
4812;SDS011;2420;51.202;8.698;2023-02-26T17:26:22;2.85;;;1.30;;
4812;SDS011;2420;51.202;8.698;2023-02-26T17:28:48;4.55;;;1.30;;
4812;SDS011;2420;51.202;8.698;2023-02-26T17:31:13;1.70;;;1.20;;
4812;SDS011;2420;51.202;8.698;2023-02-26T17:33:40;2.97;;;1.60;;
4812;SDS011;2420;51.202;8.698;2023-02-26T17:36:09;2.17;;;1.30;;
4812;SDS011;2420;51.202;8.698;2023-02-26T17:38:38;2.67;;;1.27;;
4812;SDS011;2420;51.202;8.698;2023-02-26T17:41:06;1.20;;;1.10;;
4812;SDS011;2420;51.202;8.698;2023-02-26T17:43:33;1.52;;;1.30;;
4812;SDS011;2420;51.202;8.698;2023-02-26T17:45:59;1.40;;;1.30;;
4812;SDS011;2420;51.202;8.698;2023-02-26T17:48:24;1.85;;;1.40;;
4812;SDS011;2420;51.202;8.698;2023-02-26T17:50:51;2.15;;;1.42;;
4812;SDS011;2420;51.202;8.698;2023-02-26T17:53:21;3.33;;;2.00;;
4812;SDS011;2420;51.202;8.698;2023-02-26T17:55:48;3.72;;;1.70;;
4812;SDS011;2420;51.202;8.698;2023-02-26T17:58:21;2.97;;;1.70;;
4812;SDS011;2420;51.202;8.698;2023-02-26T18:00:54;2.65;;;1.70;;
4812;SDS011;2420;51.202;8.698;2023-02-26T18:03:20;2.85;;;1.52;;
4812;SDS011;2420;51.202;8.698;2023-02-26T18:05:46;5.00;;;2.50;;
4812;SDS011;2420;51.202;8.698;2023-02-26T18:08:23;4.00;;;1.65;;
4812;SDS011;2420;51.202;8.698;2023-02-26T18:10:51;8.63;;;4.95;;
4812;SDS011;2420;51.202;8.698;2023-02-26T18:13:20;2.53;;;1.73;;
4812;SDS011;2420;51.202;8.698;2023-02-26T18:15:46;3.97;;;3.20;;
4812;SDS011;2420;51.202;8.698;2023-02-26T18:18:13;10.38;;;6.72;;
4812;SDS011;2420;51.202;8.698;2023-02-26T18:20:39;8.75;;;4.47;;
4812;SDS011;2420;51.202;8.698;2023-02-26T18:23:05;5.03;;;2.42;;
4812;SDS011;2420;51.202;8.698;2023-02-26T18:25:32;2.80;;;1.65;;
4812;SDS011;2420;51.202;8.698;2023-02-26T18:27:59;3.38;;;1.70;;
4812;SDS011;2420;51.202;8.698;2023-02-26T18:30:27;3.55;;;1.60;;
4812;SDS011;2420;51.202;8.698;2023-02-26T18:32:56;2.47;;;1.50;;
4812;SDS011;2420;51.202;8.698;2023-02-26T18:35:22;5.28;;;2.65;;
4812;SDS011;2420;51.202;8.698;2023-02-26T18:37:50;5.88;;;2.22;;
4812;SDS011;2420;51.202;8.698;2023-02-26T18:40:18;3.47;;;2.17;;